Terminal Aerodrome Forecast
Issued by NWS Blacksburg, VA

Current Version | Previous Version | Text Only | Print | Product List | Glossary Off
Versions: 1 2 3 4 5 6 7 8 9 10 11 12 13 14 15 16 17 18 19

000
FTUS41 KRNK 190322 AAA
TAFBLF
TAF AMD
KBLF 190322Z 1903/1924 20010G20KT P6SM -SHRA OVC040
      TEMPO 1903/1905 26015G30KT 4SM -SHRA OVC025
     FM190600 27016G26KT P6SM OVC015
      TEMPO 1906/1907 2SM -SHRA OVC007=

USA.gov is the U.S. government's official web portal to all federal, state and local government web resources and services.